Time;durP1;ratioP1;P1;durP2;ratioP2;P2;SDS_P1;SDS_P2;PMS_P1;PMS_P2;Temp;Humidity;BMP_temperature;BMP_pressure;BME280_temperature;BME280_humidity;BME280_pressure;Samples;Min_cycle;Max_cycle;Signal;HPM_P1;HPM_P2
2023/02/10 00:01:11;;;;;;;65.73;37.60;;;;;;;;;;5041919;28;20264;-77
2023/02/10 00:03:37;;;;;;;66.93;38.23;;;;;;;;;;5045673;28;20272;-76
2023/02/10 00:06:04;;;;;;;70.23;38.60;;;;;;;;;;5044785;28;20369;-77
2023/02/10 00:08:30;;;;;;;70.80;38.03;;;;;;;;;;5043777;28;20853;-77
2023/02/10 00:11:03;;;;;;;65.03;37.67;;;;;;;;;;5044280;28;20311;-77
2023/02/10 00:13:30;;;;;;;67.40;39.30;;;;;;;;;;5041673;28;20312;-77
2023/02/10 00:16:03;;;;;;;70.77;38.37;;;;;;;;;;5042196;28;20371;-78
2023/02/10 00:18:31;;;;;;;;;;;;;;;;;;5046375;28;20292;-77
2023/02/10 00:21:05;;;;;;;73.50;37.00;;;;;;;;;;5028111;28;19909;-77
2023/02/10 00:23:31;;;;;;;68.63;36.97;;;;;;;;;;5040709;28;20268;-76
2023/02/10 00:26:02;;;;;;;70.33;39.30;;;;;;;;;;5042321;28;20284;-76
2023/02/10 00:28:28;;;;;;;70.73;37.77;;;;;;;;;;5043644;28;20030;-77
2023/02/10 00:30:54;;;;;;;66.67;37.53;;;;;;;;;;5040946;28;20326;-77
2023/02/10 00:33:19;;;;;;;71.53;38.07;;;;;;;;;;5044513;28;20033;-78
2023/02/10 00:35:45;;;;;;;74.10;39.13;;;;;;;;;;5043988;28;20032;-77
2023/02/10 00:38:11;;;;;;;64.57;37.17;;;;;;;;;;5028315;28;20029;-75
2023/02/10 00:40:40;;;;;;;62.33;36.70;;;;;;;;;;5044518;28;20021;-77
2023/02/10 00:43:06;;;;;;;67.43;36.63;;;;;;;;;;5040984;28;20025;-77
2023/02/10 00:45:32;;;;;;;74.27;37.83;;;;;;;;;;5030601;28;20295;-77
2023/02/10 00:47:57;;;;;;;69.63;38.30;;;;;;;;;;5031157;28;20029;-76
2023/02/10 00:50:23;;;;;;;70.10;37.00;;;;;;;;;;5033130;28;20528;-77
2023/02/10 00:52:49;;;;;;;71.53;38.10;;;;;;;;;;5025184;28;20048;-76
2023/02/10 00:55:15;;;;;;;68.87;37.83;;;;;;;;;;5039655;28;20125;-75
2023/02/10 00:57:41;;;;;;;69.27;37.23;;;;;;;;;;5040154;28;20025;-77
2023/02/10 01:00:10;;;;;;;69.23;37.13;;;;;;;;;;5042768;28;20080;-76
2023/02/10 01:02:39;;;;;;;66.53;37.40;;;;;;;;;;5023926;28;20033;-75
2023/02/10 01:05:05;;;;;;;66.57;36.33;;;;;;;;;;5027942;28;20276;-77
2023/02/10 01:07:31;;;;;;;69.97;37.53;;;;;;;;;;5027461;28;20275;-77
2023/02/10 01:09:57;;;;;;;65.70;35.43;;;;;;;;;;5032893;28;20363;-76
2023/02/10 01:12:23;;;;;;;62.03;35.03;;;;;;;;;;5031566;28;20314;-75
2023/02/10 01:14:49;;;;;;;70.90;37.60;;;;;;;;;;5043171;28;20365;-75
2023/02/10 01:17:18;;;;;;;66.37;36.30;;;;;;;;;;5042731;28;20033;-75
2023/02/10 01:19:44;;;;;;;74.70;38.03;;;;;;;;;;5044446;28;20280;-75
2023/02/10 01:22:10;;;;;;;70.77;35.63;;;;;;;;;;5036623;28;20350;-77
2023/02/10 01:24:38;;;;;;;75.50;37.17;;;;;;;;;;5041681;28;20437;-77
2023/02/10 01:27:04;;;;;;;70.37;38.30;;;;;;;;;;5038887;28;20026;-77
2023/02/10 01:29:30;;;;;;;69.33;36.10;;;;;;;;;;5024847;28;20291;-78
2023/02/10 01:31:56;;;;;;;75.13;36.90;;;;;;;;;;5043739;28;20033;-76
2023/02/10 01:34:22;;;;;;;76.63;36.67;;;;;;;;;;5028037;28;20295;-77
2023/02/10 01:36:48;;;;;;;66.43;36.20;;;;;;;;;;5040510;28;20030;-77
2023/02/10 01:39:16;;;;;;;74.97;37.87;;;;;;;;;;5041702;28;20465;-77
2023/02/10 01:41:42;;;;;;;68.97;36.00;;;;;;;;;;5026080;28;20466;-77
2023/02/10 01:44:20;;;;;;;70.53;36.67;;;;;;;;;;5028366;28;20339;-76
2023/02/10 01:46:50;;;;;;;66.57;35.57;;;;;;;;;;5042398;28;20044;-77
2023/02/10 01:49:17;;;;;;;65.93;34.80;;;;;;;;;;5042202;28;20610;-77
2023/02/10 01:51:46;;;;;;;65.47;36.20;;;;;;;;;;5041163;28;20309;-77
2023/02/10 01:54:14;;;;;;;75.70;36.47;;;;;;;;;;5041818;28;20355;-76
2023/02/10 01:56:41;;;;;;;68.40;36.63;;;;;;;;;;5027338;28;20279;-76
2023/02/10 01:59:07;;;;;;;68.83;36.17;;;;;;;;;;5024550;28;20323;-77
2023/02/10 02:01:33;;;;;;;72.10;38.17;;;;;;;;;;5040192;28;20357;-77
2023/02/10 02:04:00;;;;;;;76.37;37.37;;;;;;;;;;5028133;28;20276;-77
2023/02/10 02:06:26;;;;;;;66.80;36.40;;;;;;;;;;5041157;28;21004;-77
2023/02/10 02:08:52;;;;;;;75.07;35.87;;;;;;;;;;5042707;28;20276;-78
2023/02/10 02:11:41;;;;;;;74.70;37.90;;;;;;;;;;5024237;28;20428;-76
2023/02/10 02:14:14;;;;;;;77.23;37.93;;;;;;;;;;5042734;28;20272;-77
2023/02/10 02:16:40;;;;;;;69.40;35.72;;;;;;;;;;5042251;28;20374;-77
2023/02/10 02:19:09;;;;;;;70.33;36.80;;;;;;;;;;5025768;28;20076;-79
2023/02/10 02:21:41;;;;;;;73.00;36.53;;;;;;;;;;5040241;28;20033;-77
2023/02/10 02:24:16;;;;;;;76.57;38.88;;;;;;;;;;5041302;28;20418;-75
2023/02/10 02:26:48;;;;;;;69.57;37.27;;;;;;;;;;5040774;28;20053;-77
2023/02/10 02:32:21;;;;;;;66.47;36.40;;;;;;;;;;5024341;28;20060;-78
2023/02/10 02:35:08;;;;;;;78.87;38.80;;;;;;;;;;5043351;28;20260;-76
2023/02/10 02:37:41;;;;;;;77.63;37.63;;;;;;;;;;5042647;28;20295;-76
2023/02/10 02:40:08;;;;;;;69.37;36.80;;;;;;;;;;5024091;28;20272;-77
2023/02/10 02:42:34;;;;;;;78.43;36.27;;;;;;;;;;5043427;28;20290;-77
2023/02/10 02:45:14;;;;;;;76.13;37.30;;;;;;;;;;5057419;28;20744;-76
2023/02/10 02:47:40;;;;;;;75.07;37.47;;;;;;;;;;5043047;28;20792;-78
2023/02/10 02:50:18;;;;;;;67.97;37.80;;;;;;;;;;5034318;28;20295;-77
2023/02/10 02:52:50;;;;;;;64.60;36.67;;;;;;;;;;5034586;28;20029;-78
2023/02/10 02:55:34;;;;;;;69.40;28.30;;;;;;;;;;5037245;28;20280;-78
2023/02/10 02:58:19;;;;;;;72.43;36.97;;;;;;;;;;5038012;28;20026;-76
2023/02/10 03:00:46;;;;;;;68.07;35.60;;;;;;;;;;5058191;28;20287;-76
2023/02/10 03:03:12;;;;;;;68.73;34.97;;;;;;;;;;5051097;28;20267;-76
2023/02/10 03:05:38;;;;;;;75.50;37.93;;;;;;;;;;5054403;28;20288;-76
2023/02/10 03:08:04;;;;;;;76.73;39.53;;;;;;;;;;5037433;28;20319;-77
2023/02/10 03:10:30;;;;;;;79.67;37.47;;;;;;;;;;5037856;28;20030;-78
2023/02/10 03:12:56;;;;;;;71.30;37.20;;;;;;;;;;5056685;28;20325;-77
2023/02/10 03:15:22;;;;;;;72.43;37.43;;;;;;;;;;5039729;28;20029;-77
2023/02/10 03:17:48;;;;;;;74.43;37.63;;;;;;;;;;5053888;28;20291;-76
2023/02/10 03:20:14;;;;;;;66.03;35.70;;;;;;;;;;5038659;28;20434;-76
2023/02/10 03:22:41;;;;;;;74.27;36.83;;;;;;;;;;5037334;28;20167;-77
2023/02/10 03:25:07;;;;;;;70.57;36.87;;;;;;;;;;5037394;28;20304;-77
2023/02/10 03:27:33;;;;;;;76.73;37.37;;;;;;;;;;5037414;28;20609;-77
2023/02/10 03:29:59;;;;;;;78.70;38.67;;;;;;;;;;5037475;28;20276;-77
2023/02/10 03:32:25;;;;;;;73.13;38.53;;;;;;;;;;5054359;28;20026;-77
2023/02/10 03:34:51;;;;;;;77.67;41.10;;;;;;;;;;5051451;28;20272;-77
2023/02/10 03:37:17;;;;;;;79.43;39.30;;;;;;;;;;5053957;28;20060;-76
2023/02/10 03:39:43;;;;;;;76.30;38.67;;;;;;;;;;5037331;28;20101;-78
2023/02/10 03:42:09;;;;;;;70.80;38.07;;;;;;;;;;5036755;28;20033;-76
2023/02/10 03:44:35;;;;;;;85.67;38.50;;;;;;;;;;5037000;28;20510;-77
2023/02/10 03:47:02;;;;;;;80.27;39.77;;;;;;;;;;5036962;28;20325;-78
2023/02/10 03:49:28;;;;;;;78.20;39.33;;;;;;;;;;5036913;28;20030;-77
2023/02/10 03:51:53;;;;;;;78.43;38.77;;;;;;;;;;5037123;28;20589;-77
2023/02/10 03:54:19;;;;;;;77.13;37.90;;;;;;;;;;5044473;28;20033;-76
2023/02/10 03:56:45;;;;;;;74.53;39.47;;;;;;;;;;5057539;28;20066;-76
2023/02/10 03:59:11;;;;;;;81.07;40.07;;;;;;;;;;5057314;28;20315;-77
2023/02/10 04:01:37;;;;;;;77.37;39.13;;;;;;;;;;5038951;28;20119;-77
2023/02/10 04:04:03;;;;;;;86.63;40.73;;;;;;;;;;5036674;28;20033;-77
2023/02/10 04:06:29;;;;;;;80.80;40.77;;;;;;;;;;5048576;28;20025;-77
2023/02/10 04:08:55;;;;;;;72.47;39.20;;;;;;;;;;5037608;28;20605;-77
2023/02/10 04:11:24;;;;;;;90.30;40.97;;;;;;;;;;5041892;28;20090;-77
2023/02/10 04:13:50;;;;;;;81.77;41.53;;;;;;;;;;5047100;28;20037;-77
2023/02/10 04:16:16;;;;;;;77.77;41.67;;;;;;;;;;5049001;28;20275;-77
2023/02/10 04:18:43;;;;;;;83.33;39.73;;;;;;;;;;5039407;28;20446;-75
2023/02/10 04:21:10;;;;;;;89.70;42.10;;;;;;;;;;5044590;28;20287;-77
2023/02/10 04:23:36;;;;;;;92.67;41.87;;;;;;;;;;5045229;28;20279;-76
2023/02/10 04:26:02;;;;;;;90.20;43.17;;;;;;;;;;5044673;28;20268;-77
2023/02/10 04:28:28;;;;;;;98.20;43.23;;;;;;;;;;5040988;28;20295;-75
2023/02/10 04:30:55;;;;;;;94.40;44.07;;;;;;;;;;5043699;28;20030;-76
2023/02/10 04:33:21;;;;;;;95.80;45.57;;;;;;;;;;5041911;28;20285;-77
2023/02/10 04:35:51;;;;;;;96.83;45.63;;;;;;;;;;5025042;28;20408;-77
2023/02/10 04:38:18;;;;;;;101.77;44.93;;;;;;;;;;5027925;28;20322;-77
2023/02/10 04:40:44;;;;;;;90.10;44.60;;;;;;;;;;5043235;28;20287;-77
2023/02/10 04:43:10;;;;;;;106.50;46.43;;;;;;;;;;5044292;28;20342;-76
2023/02/10 04:45:37;;;;;;;93.67;44.87;;;;;;;;;;5027308;28;20347;-77
2023/02/10 04:48:03;;;;;;;98.90;46.87;;;;;;;;;;5043161;28;20399;-77
2023/02/10 04:50:29;;;;;;;110.93;49.70;;;;;;;;;;5042320;28;20276;-76
2023/02/10 04:52:55;;;;;;;115.57;52.23;;;;;;;;;;5040933;28;22138;-76
2023/02/10 04:55:21;;;;;;;109.87;49.33;;;;;;;;;;5041543;28;20033;-76
2023/02/10 04:57:47;;;;;;;117.70;49.47;;;;;;;;;;5042514;28;20620;-77
2023/02/10 05:00:13;;;;;;;106.93;48.87;;;;;;;;;;5028693;28;20102;-76
2023/02/10 05:02:39;;;;;;;115.83;49.87;;;;;;;;;;5027394;28;20287;-76
2023/02/10 05:05:05;;;;;;;126.63;50.30;;;;;;;;;;5025581;28;20264;-76
2023/02/10 05:07:31;;;;;;;120.27;52.63;;;;;;;;;;5043988;28;20068;-77
2023/02/10 05:09:57;;;;;;;121.30;50.70;;;;;;;;;;5041580;28;20276;-76
2023/02/10 05:12:23;;;;;;;118.93;51.77;;;;;;;;;;5043123;28;20729;-75
2023/02/10 05:14:49;;;;;;;122.37;52.63;;;;;;;;;;5026457;28;20275;-76
2023/02/10 05:17:15;;;;;;;125.03;50.13;;;;;;;;;;5028039;28;20621;-76
2023/02/10 05:19:41;;;;;;;133.80;52.97;;;;;;;;;;5046298;28;20029;-77
2023/02/10 05:22:07;;;;;;;124.17;52.83;;;;;;;;;;5029612;28;20349;-76
2023/02/10 05:24:33;;;;;;;119.90;50.07;;;;;;;;;;5041856;28;20072;-75
2023/02/10 05:26:59;;;;;;;119.87;49.43;;;;;;;;;;5024289;28;20505;-77
2023/02/10 05:29:25;;;;;;;120.70;48.37;;;;;;;;;;5043654;28;20041;-76
2023/02/10 05:31:51;;;;;;;111.80;48.57;;;;;;;;;;5043203;28;20279;-77
2023/02/10 05:34:17;;;;;;;142.43;50.67;;;;;;;;;;5030465;28;20300;-77
2023/02/10 05:36:43;;;;;;;122.27;48.63;;;;;;;;;;5026989;28;20728;-77
2023/02/10 05:39:25;;;;;;;130.93;53.40;;;;;;;;;;5026217;28;20025;-77
2023/02/10 05:41:56;;;;;;;137.30;51.17;;;;;;;;;;5041214;28;20737;-76
2023/02/10 05:44:22;;;;;;;142.97;53.37;;;;;;;;;;5023161;28;20280;-76
2023/02/10 05:46:48;;;;;;;132.90;51.20;;;;;;;;;;5026355;28;21236;-76
2023/02/10 05:49:14;;;;;;;124.47;48.90;;;;;;;;;;5028130;28;20335;-77
2023/02/10 05:51:41;;;;;;;129.97;51.53;;;;;;;;;;5041553;28;20277;-76
2023/02/10 05:54:07;;;;;;;131.07;50.57;;;;;;;;;;5024086;28;20288;-76
2023/02/10 05:56:33;;;;;;;120.27;47.83;;;;;;;;;;5045722;28;20276;-76
2023/02/10 05:59:00;;;;;;;126.00;49.50;;;;;;;;;;5040056;28;20288;-76
2023/02/10 06:01:26;;;;;;;131.63;52.10;;;;;;;;;;5040412;28;20613;-76
2023/02/10 06:03:52;;;;;;;140.63;51.23;;;;;;;;;;5044862;28;20272;-76
2023/02/10 06:06:18;;;;;;;144.67;53.30;;;;;;;;;;5026942;28;20025;-75
2023/02/10 06:08:48;;;;;;;130.90;50.97;;;;;;;;;;5041567;28;20608;-75
2023/02/10 06:11:14;;;;;;;130.47;50.30;;;;;;;;;;5040382;28;20264;-76
2023/02/10 06:13:41;;;;;;;145.93;53.37;;;;;;;;;;5026044;28;20381;-77
2023/02/10 06:16:08;;;;;;;144.73;55.57;;;;;;;;;;5038595;28;20280;-77
2023/02/10 06:18:34;;;;;;;168.17;55.83;;;;;;;;;;5039494;28;20287;-76
2023/02/10 06:21:00;;;;;;;150.63;52.43;;;;;;;;;;5040076;28;20300;-76
2023/02/10 06:23:26;;;;;;;157.60;56.83;;;;;;;;;;5023463;28;20358;-76
2023/02/10 06:25:54;;;;;;;155.53;53.60;;;;;;;;;;5040811;28;20394;-79
2023/02/10 06:28:23;;;;;;;142.00;52.53;;;;;;;;;;5040141;28;20283;-79
2023/02/10 06:30:50;;;;;;;156.23;53.30;;;;;;;;;;5026060;28;20280;-78
2023/02/10 06:33:16;;;;;;;168.73;55.63;;;;;;;;;;5040876;28;20350;-77
2023/02/10 06:35:42;;;;;;;139.77;52.73;;;;;;;;;;5041731;28;20346;-80
2023/02/10 06:38:08;;;;;;;150.17;54.40;;;;;;;;;;5025112;28;20304;-79
2023/02/10 06:40:34;;;;;;;152.93;54.57;;;;;;;;;;5023680;28;20268;-76
2023/02/10 06:43:01;;;;;;;175.83;56.60;;;;;;;;;;5024935;28;20326;-74
2023/02/10 06:45:27;;;;;;;167.77;56.77;;;;;;;;;;5039874;28;20295;-78
2023/02/10 06:47:53;;;;;;;153.60;53.00;;;;;;;;;;5025692;28;20303;-76
2023/02/10 06:50:19;;;;;;;171.67;57.40;;;;;;;;;;5039320;28;20617;-79
2023/02/10 06:52:46;;;;;;;157.90;57.43;;;;;;;;;;5040005;28;20663;-78
2023/02/10 06:55:12;;;;;;;170.80;55.67;;;;;;;;;;5040752;28;20276;-76
2023/02/10 06:57:38;;;;;;;163.43;56.93;;;;;;;;;;5043084;28;20312;-76
2023/02/10 07:00:05;;;;;;;168.00;53.17;;;;;;;;;;5041108;28;20747;-76
2023/02/10 07:02:31;;;;;;;160.63;53.57;;;;;;;;;;5023899;28;20745;-76
2023/02/10 07:04:57;;;;;;;167.43;57.23;;;;;;;;;;5040642;28;20341;-76
2023/02/10 07:07:25;;;;;;;173.83;58.80;;;;;;;;;;5023590;28;20288;-76
2023/02/10 07:09:54;;;;;;;192.97;61.83;;;;;;;;;;5038764;28;20051;-75
2023/02/10 07:12:20;;;;;;;206.33;63.97;;;;;;;;;;5040462;28;20364;-77
2023/02/10 07:14:46;;;;;;;218.30;62.93;;;;;;;;;;5038818;28;20276;-77
2023/02/10 07:17:12;;;;;;;192.03;61.13;;;;;;;;;;5040285;28;20346;-76
2023/02/10 07:19:38;;;;;;;207.13;67.57;;;;;;;;;;5042990;28;20029;-76
2023/02/10 07:22:06;;;;;;;194.13;68.57;;;;;;;;;;5041944;28;20025;-74
2023/02/10 07:24:35;;;;;;;174.83;60.23;;;;;;;;;;5039559;28;20359;-77
2023/02/10 07:27:01;;;;;;;181.53;60.63;;;;;;;;;;5025253;28;20341;-76
2023/02/10 07:29:27;;;;;;;197.27;62.53;;;;;;;;;;5024399;28;20307;-75
2023/02/10 07:31:53;;;;;;;201.13;61.83;;;;;;;;;;5038209;28;20323;-75
2023/02/10 07:34:21;;;;;;;206.33;62.67;;;;;;;;;;5022636;28;20037;-77
2023/02/10 07:36:53;;;;;;;205.37;66.90;;;;;;;;;;5041349;28;20057;-77
2023/02/10 07:39:19;;;;;;;223.87;67.07;;;;;;;;;;5040609;28;20280;-76
2023/02/10 07:41:45;;;;;;;227.43;68.13;;;;;;;;;;5044528;28;20281;-77
2023/02/10 07:44:11;;;;;;;220.77;69.33;;;;;;;;;;5041760;28;20276;-76
2023/02/10 07:46:37;;;;;;;217.63;69.97;;;;;;;;;;5045675;28;20284;-76
2023/02/10 07:49:03;;;;;;;220.03;66.93;;;;;;;;;;5042833;28;20544;-77
2023/02/10 07:51:29;;;;;;;207.73;66.50;;;;;;;;;;5045216;28;20190;-75
2023/02/10 07:53:55;;;;;;;216.63;65.10;;;;;;;;;;5026396;28;20033;-77
2023/02/10 07:56:21;;;;;;;224.40;64.43;;;;;;;;;;5028818;28;20299;-76
2023/02/10 07:58:47;;;;;;;212.37;65.23;;;;;;;;;;5027380;28;20760;-75
2023/02/10 08:01:16;;;;;;;198.00;61.10;;;;;;;;;;5044203;28;20121;-77
2023/02/10 08:03:42;;;;;;;208.03;64.10;;;;;;;;;;5026612;28;20275;-77
2023/02/10 08:06:08;;;;;;;213.40;64.97;;;;;;;;;;5043025;28;20276;-77
2023/02/10 08:08:34;;;;;;;214.23;63.80;;;;;;;;;;5042005;28;20276;-77
2023/02/10 08:11:00;;;;;;;211.97;64.43;;;;;;;;;;5042506;28;20822;-77
2023/02/10 08:13:27;;;;;;;222.73;67.53;;;;;;;;;;5028764;28;20292;-77
2023/02/10 08:15:53;;;;;;;216.30;66.03;;;;;;;;;;5028256;28;22001;-76
2023/02/10 08:18:19;;;;;;;233.40;68.33;;;;;;;;;;5041967;28;20830;-76
2023/02/10 08:20:45;;;;;;;224.60;67.27;;;;;;;;;;5044369;28;20280;-76
2023/02/10 08:23:15;;;;;;;212.83;66.40;;;;;;;;;;5043925;28;20143;-77
2023/02/10 08:25:44;;;;;;;210.63;63.13;;;;;;;;;;5027637;28;20224;-78
2023/02/10 08:28:10;;;;;;;209.60;66.07;;;;;;;;;;5028383;28;20284;-77
2023/02/10 08:30:40;;;;;;;214.93;68.40;;;;;;;;;;5026514;28;20356;-78
2023/02/10 08:33:08;;;;;;;216.80;66.50;;;;;;;;;;5044241;28;20783;-78
2023/02/10 08:35:38;;;;;;;215.87;66.07;;;;;;;;;;5042737;28;20280;-78
2023/02/10 08:38:05;;;;;;;215.00;66.83;;;;;;;;;;5041935;28;20371;-78
2023/02/10 08:40:31;;;;;;;223.27;68.67;;;;;;;;;;5043506;28;20920;-78
2023/02/10 08:42:57;;;;;;;218.97;68.63;;;;;;;;;;5050198;28;20267;-78
2023/02/10 08:45:23;;;;;;;207.83;68.57;;;;;;;;;;5042194;28;20284;-77
2023/02/10 08:47:49;;;;;;;213.80;66.00;;;;;;;;;;5034115;28;20298;-77
2023/02/10 08:50:15;;;;;;;205.83;65.53;;;;;;;;;;5052455;28;20739;-77
2023/02/10 08:52:41;;;;;;;186.43;64.73;;;;;;;;;;5051989;28;20090;-78
2023/02/10 08:55:07;;;;;;;196.77;64.87;;;;;;;;;;5036074;28;20121;-77
2023/02/10 08:57:34;;;;;;;187.07;64.97;;;;;;;;;;5026835;28;20284;-78
2023/02/10 09:00:00;;;;;;;175.67;60.03;;;;;;;;;;5039477;28;20390;-77
2023/02/10 09:02:29;;;;;;;165.07;60.60;;;;;;;;;;5048541;28;20268;-78
2023/02/10 09:04:55;;;;;;;170.40;62.67;;;;;;;;;;5035276;28;20279;-78
2023/02/10 09:07:21;;;;;;;177.63;61.07;;;;;;;;;;5036493;28;20264;-78
2023/02/10 09:09:47;;;;;;;169.03;59.40;;;;;;;;;;5040958;28;20280;-77
2023/02/10 09:12:14;;;;;;;153.87;59.13;;;;;;;;;;5051256;28;20717;-78
2023/02/10 09:14:40;;;;;;;158.70;60.53;;;;;;;;;;5035855;28;20061;-79
2023/02/10 09:17:07;;;;;;;165.20;62.63;;;;;;;;;;5054827;28;20578;-78
2023/02/10 09:19:34;;;;;;;146.00;59.27;;;;;;;;;;5040952;28;20287;-78
2023/02/10 09:22:00;;;;;;;150.40;60.57;;;;;;;;;;5035065;28;20656;-78
2023/02/10 09:24:26;;;;;;;144.43;59.97;;;;;;;;;;5044473;28;20740;-78
2023/02/10 09:26:52;;;;;;;134.33;55.47;;;;;;;;;;5035003;28;20029;-78
2023/02/10 09:29:18;;;;;;;124.37;55.30;;;;;;;;;;5042796;28;20338;-78
2023/02/10 09:31:44;;;;;;;115.73;51.90;;;;;;;;;;5023364;28;20030;-78
2023/02/10 09:34:10;;;;;;;115.07;49.70;;;;;;;;;;5054162;28;20319;-77
2023/02/10 09:36:38;;;;;;;107.10;48.67;;;;;;;;;;5035852;28;20512;-78
2023/02/10 09:39:04;;;;;;;107.23;48.40;;;;;;;;;;5041966;28;20284;-78
2023/02/10 09:41:32;;;;;;;94.63;45.30;;;;;;;;;;5032413;28;20026;-77
2023/02/10 09:44:01;;;;;;;99.43;44.30;;;;;;;;;;5063015;28;20446;-78
2023/02/10 09:46:47;;;;;;;91.67;42.83;;;;;;;;;;5035833;28;20036;-78
2023/02/10 09:49:13;;;;;;;81.20;39.60;;;;;;;;;;5035074;28;20430;-78
2023/02/10 09:52:00;;;;;;;80.23;38.10;;;;;;;;;;5030007;28;20025;-78
2023/02/10 09:54:31;;;;;;;77.70;39.07;;;;;;;;;;5042338;28;20030;-77
2023/02/10 09:57:02;;;;;;;76.67;36.87;;;;;;;;;;5048015;28;20614;-77
2023/02/10 09:59:28;;;;;;;69.30;37.87;;;;;;;;;;5046810;28;20394;-77
2023/02/10 10:02:12;;;;;;;76.23;37.83;;;;;;;;;;5037694;28;20033;-78
2023/02/10 10:04:38;;;;;;;76.40;37.87;;;;;;;;;;5041599;28;20037;-77
2023/02/10 10:07:13;;;;;;;76.90;38.27;;;;;;;;;;5034006;28;20033;-77
2023/02/10 10:10:09;;;;;;;78.93;38.63;;;;;;;;;;5052112;28;20036;-77
2023/02/10 10:12:35;;;;;;;74.83;37.17;;;;;;;;;;5021539;28;20649;-77
2023/02/10 10:15:01;;;;;;;78.97;39.00;;;;;;;;;;5042666;28;20021;-78
2023/02/10 10:17:30;;;;;;;79.33;39.37;;;;;;;;;;5038880;28;20705;-76
2023/02/10 10:19:59;;;;;;;70.27;33.57;;;;;;;;;;5023963;28;20403;-77
2023/02/10 10:22:31;;;;;;;66.77;34.30;;;;;;;;;;5042603;28;20464;-76
2023/02/10 10:24:57;;;;;;;69.85;32.05;;;;;;;;;;5039041;28;20061;-76
2023/02/10 10:27:30;;;;;;;69.30;34.27;;;;;;;;;;5026718;28;20122;-76
2023/02/10 10:29:59;;;;;;;65.23;33.63;;;;;;;;;;5025843;28;20095;-77
2023/02/10 10:32:28;;;;;;;64.13;32.97;;;;;;;;;;5042021;28;20041;-78
2023/02/10 10:34:54;;;;;;;66.63;34.90;;;;;;;;;;5025301;28;20068;-77
2023/02/10 10:37:22;;;;;;;72.40;35.50;;;;;;;;;;5039096;28;20034;-77
2023/02/10 10:39:52;;;;;;;73.00;35.77;;;;;;;;;;5040874;28;20044;-77
2023/02/10 10:42:18;;;;;;;63.90;33.97;;;;;;;;;;5041773;28;20033;-78
2023/02/10 10:44:46;;;;;;;72.17;33.63;;;;;;;;;;5024535;28;20037;-76
2023/02/10 10:47:15;;;;;;;65.03;33.50;;;;;;;;;;5023763;28;20061;-79
2023/02/10 10:49:41;;;;;;;64.03;33.73;;;;;;;;;;5023910;28;20047;-75
2023/02/10 10:52:22;;;;;;;59.97;31.33;;;;;;;;;;5041408;28;20148;-76
2023/02/10 10:54:48;;;;;;;66.50;33.33;;;;;;;;;;5041874;28;20524;-76
2023/02/10 10:57:16;;;;;;;66.27;31.20;;;;;;;;;;5038852;28;20034;-77
2023/02/10 10:59:46;;;;;;;61.00;31.30;;;;;;;;;;5026029;28;20053;-76
2023/02/10 11:02:12;;;;;;;56.53;30.63;;;;;;;;;;5027216;28;20117;-78
2023/02/10 11:04:42;;;;;;;62.83;32.07;;;;;;;;;;5042217;28;20029;-77
2023/02/10 11:07:10;;;;;;;60.73;30.97;;;;;;;;;;5040755;28;20381;-77
2023/02/10 11:09:41;;;;;;;59.93;30.80;;;;;;;;;;5024987;28;20059;-76
2023/02/10 11:12:16;;;;;;;57.07;29.73;;;;;;;;;;5041406;28;20430;-78
2023/02/10 11:14:45;;;;;;;60.70;31.87;;;;;;;;;;5029585;28;20099;-76
2023/02/10 11:17:20;;;;;;;61.73;30.27;;;;;;;;;;5045243;28;20498;-77
2023/02/10 11:19:54;;;;;;;57.20;29.43;;;;;;;;;;5043661;28;21635;-78
2023/02/10 11:22:21;;;;;;;60.10;27.57;;;;;;;;;;5044125;28;20037;-77
2023/02/10 11:24:52;;;;;;;57.70;27.40;;;;;;;;;;5044437;28;20025;-77
2023/02/10 11:27:18;;;;;;;51.77;25.17;;;;;;;;;;5042607;28;20362;-77
2023/02/10 11:29:49;;;;;;;50.67;26.43;;;;;;;;;;5028832;28;20037;-77
2023/02/10 11:32:19;;;;;;;53.70;25.40;;;;;;;;;;5031477;28;20037;-78
2023/02/10 11:34:50;;;;;;;61.43;27.13;;;;;;;;;;5042108;28;20041;-77
2023/02/10 11:37:24;;;;;;;51.33;25.03;;;;;;;;;;5045126;28;20091;-75
2023/02/10 11:39:53;;;;;;;48.17;24.17;;;;;;;;;;5029987;28;20025;-76
2023/02/10 11:42:22;;;;;;;51.27;25.90;;;;;;;;;;5041212;28;20087;-78
2023/02/10 11:44:58;;;;;;;52.07;25.40;;;;;;;;;;5042744;28;20048;-76
2023/02/10 11:47:25;;;;;;;50.27;27.57;;;;;;;;;;5042481;28;20033;-78
2023/02/10 11:49:51;;;;;;;51.43;25.87;;;;;;;;;;5043850;28;20144;-76
2023/02/10 11:52:19;;;;;;;58.77;27.83;;;;;;;;;;5041998;28;20533;-79
2023/02/10 11:54:45;;;;;;;55.83;28.10;;;;;;;;;;5043409;28;20087;-78
2023/02/10 12:00:16;;;;;;;51.77;27.17;;;;;;;;;;5027596;28;20033;-77
2023/02/10 12:03:00;;;;;;;52.47;27.77;;;;;;;;;;5029253;28;20026;-77
2023/02/10 12:05:26;;;;;;;59.03;28.83;;;;;;;;;;5043231;28;20466;-77
2023/02/10 12:08:06;;;;;;;52.63;27.17;;;;;;;;;;5026796;28;20101;-79
2023/02/10 12:10:37;;;;;;;51.47;27.77;;;;;;;;;;5043696;28;20100;-77
2023/02/10 12:13:03;;;;;;;59.47;29.53;;;;;;;;;;5029525;28;20108;-78
2023/02/10 12:15:29;;;;;;;50.33;28.33;;;;;;;;;;5023686;28;20123;-77
2023/02/10 12:18:01;;;;;;;59.97;30.87;;;;;;;;;;5026800;28;20738;-77
2023/02/10 12:20:42;;;;;;;54.42;28.02;;;;;;;;;;5044188;28;20026;-77
2023/02/10 12:23:16;;;;;;;51.33;28.27;;;;;;;;;;5023662;28;20143;-79
2023/02/10 12:25:48;;;;;;;51.90;27.83;;;;;;;;;;5040900;28;20026;-78
2023/02/10 12:28:17;;;;;;;42.80;23.10;;;;;;;;;;5042892;28;20026;-77
2023/02/10 12:30:42;;;;;;;42.70;24.53;;;;;;;;;;5042860;28;20058;-77
2023/02/10 12:33:11;;;;;;;45.43;23.60;;;;;;;;;;5026898;28;20061;-77
2023/02/10 12:35:58;;;;;;;42.23;22.63;;;;;;;;;;5043415;28;20044;-78
2023/02/10 12:38:30;;;;;;;42.70;21.50;;;;;;;;;;5029209;28;20780;-77
2023/02/10 12:41:08;;;;;;;38.33;21.45;;;;;;;;;;5046293;28;20477;-78
2023/02/10 12:43:43;;;;;;;36.13;20.73;;;;;;;;;;5034085;28;20067;-79
2023/02/10 12:46:09;;;;;;;39.40;20.93;;;;;;;;;;5047590;28;20359;-78
2023/02/10 12:48:35;;;;;;;38.03;21.00;;;;;;;;;;5032877;28;20022;-77
2023/02/10 12:51:30;;;;;;;41.93;20.80;;;;;;;;;;5045764;28;20033;-78
2023/02/10 12:54:29;;;;;;;31.40;18.57;;;;;;;;;;5043044;28;20060;-78
2023/02/10 12:56:59;;;;;;;36.27;19.33;;;;;;;;;;5017221;28;20120;-77
2023/02/10 12:59:28;;;;;;;34.10;18.47;;;;;;;;;;5029329;28;20154;-77
2023/02/10 13:01:54;;;;;;;32.30;18.80;;;;;;;;;;5047090;28;20396;-78
2023/02/10 13:04:26;;;;;;;25.77;16.40;;;;;;;;;;5029721;28;20033;-78
2023/02/10 13:07:00;;;;;;;31.63;16.73;;;;;;;;;;5043847;28;20061;-78
2023/02/10 13:09:38;;;;;;;29.97;16.67;;;;;;;;;;5031887;28;20110;-78
2023/02/10 13:12:13;;;;;;;33.90;17.53;;;;;;;;;;5045020;28;20026;-78
2023/02/10 13:14:40;;;;;;;32.40;17.00;;;;;;;;;;5051392;28;20025;-78
2023/02/10 13:17:06;;;;;;;30.50;17.33;;;;;;;;;;5028472;28;20025;-78
2023/02/10 13:19:58;;;;;;;33.07;17.20;;;;;;;;;;5045285;28;20041;-79
2023/02/10 13:22:34;;;;;;;36.13;17.33;;;;;;;;;;5026552;28;20081;-77
2023/02/10 13:25:10;;;;;;;31.20;18.00;;;;;;;;;;5048027;28;20076;-78
2023/02/10 13:27:39;;;;;;;28.93;16.97;;;;;;;;;;5045770;28;20041;-79
2023/02/10 13:30:08;;;;;;;26.27;16.57;;;;;;;;;;5043595;28;20041;-78
2023/02/10 13:32:46;;;;;;;53.70;17.93;;;;;;;;;;5026452;28;20630;-77
2023/02/10 13:35:22;;;;;;;29.27;17.10;;;;;;;;;;5025790;28;20044;-78
2023/02/10 13:37:50;;;;;;;30.37;18.00;;;;;;;;;;5025559;28;20033;-77
2023/02/10 13:40:20;;;;;;;39.60;18.07;;;;;;;;;;5043420;28;20026;-78
2023/02/10 13:42:52;;;;;;;28.47;17.30;;;;;;;;;;5031326;28;20552;-78
2023/02/10 13:45:28;;;;;;;30.90;17.50;;;;;;;;;;5041792;28;20029;-78
2023/02/10 13:47:57;;;;;;;32.33;18.33;;;;;;;;;;5043838;28;20107;-77
2023/02/10 13:50:23;;;;;;;29.10;16.97;;;;;;;;;;5043614;28;20037;-77
2023/02/10 13:52:49;;;;;;;32.90;18.17;;;;;;;;;;5043493;28;20044;-78
2023/02/10 13:55:15;;;;;;;29.33;16.43;;;;;;;;;;5049379;28;20034;-79
2023/02/10 13:57:51;;;;;;;27.27;16.30;;;;;;;;;;5046844;28;20089;-78
2023/02/10 14:00:24;;;;;;;28.60;18.27;;;;;;;;;;5048304;28;20044;-78
2023/02/10 14:02:50;;;;;;;;;;;;;;;;;;5043465;28;20040;-78
2023/02/10 14:05:28;;;;;;;27.77;16.10;;;;;;;;;;5030873;28;19917;-79
2023/02/10 14:07:55;;;;;;;26.37;16.97;;;;;;;;;;5044971;28;20057;-79
2023/02/10 14:10:21;;;;;;;30.03;18.20;;;;;;;;;;5049823;28;20366;-77
2023/02/10 14:12:55;;;;;;;31.47;18.07;;;;;;;;;;5031392;28;20029;-78
2023/02/10 14:15:23;;;;;;;29.37;16.63;;;;;;;;;;5046398;28;20091;-78
2023/02/10 14:17:55;;;;;;;30.20;17.97;;;;;;;;;;5044255;28;20036;-77
2023/02/10 14:20:24;;;;;;;30.77;16.97;;;;;;;;;;5042623;28;20030;-79
2023/02/10 14:22:51;;;;;;;32.93;18.17;;;;;;;;;;5043365;28;20026;-79
2023/02/10 14:25:29;;;;;;;32.10;17.93;;;;;;;;;;5044412;28;20041;-78
2023/02/10 14:27:55;;;;;;;32.00;17.83;;;;;;;;;;5043532;28;20079;-78